createdAt,value
2017-03-24T00:00:00.761Z,1008.77
2017-03-24T00:01:00.794Z,1008.77
2017-03-24T00:02:00.831Z,1008.78
2017-03-24T00:03:00.867Z,1008.73
2017-03-24T00:04:00.901Z,1008.74
2017-03-24T00:05:00.938Z,1008.72
2017-03-24T00:06:00.969Z,1008.76
2017-03-24T00:07:01.004Z,1008.76
2017-03-24T00:08:01.040Z,1008.78
2017-03-24T00:09:01.075Z,1008.75
2017-03-24T00:10:01.110Z,1008.74
2017-03-24T00:11:01.145Z,1008.75
2017-03-24T00:12:01.183Z,1008.79
2017-03-24T00:13:01.216Z,1008.75
2017-03-24T00:14:01.250Z,1008.8
2017-03-24T00:15:01.283Z,1008.8
2017-03-24T00:16:01.318Z,1008.77
2017-03-24T00:17:01.353Z,1008.72
2017-03-24T00:18:01.390Z,1008.71
2017-03-24T00:19:01.422Z,1008.71
2017-03-24T00:20:01.459Z,1008.77
2017-03-24T00:21:01.494Z,1008.79
2017-03-24T00:22:01.528Z,1008.83
2017-03-24T00:23:01.563Z,1008.85
2017-03-24T00:24:01.597Z,1008.89
2017-03-24T00:25:01.634Z,1008.85
2017-03-24T00:26:01.666Z,1008.91
2017-03-24T00:27:01.701Z,1008.93
2017-03-24T00:28:01.737Z,1008.94
2017-03-24T00:29:01.772Z,1008.91
2017-03-24T00:30:01.805Z,1008.96
2017-03-24T00:31:01.842Z,1008.96
2017-03-24T00:32:01.875Z,1009.01
2017-03-24T00:33:01.911Z,1008.98
2017-03-24T00:34:01.946Z,1008.98
2017-03-24T00:35:01.981Z,1009.02
2017-03-24T00:36:02.016Z,1009.01
2017-03-24T00:37:02.050Z,1009.01
2017-03-24T00:38:02.085Z,1009.03
2017-03-24T00:39:02.123Z,1009.01
2017-03-24T00:40:02.154Z,1009.02
2017-03-24T00:41:02.189Z,1009
2017-03-24T00:42:02.223Z,1009
2017-03-24T00:43:02.259Z,1008.98
2017-03-24T00:44:02.294Z,1008.99
2017-03-24T00:45:02.327Z,1008.99
2017-03-24T00:46:02.362Z,1009.03
2017-03-24T00:47:02.398Z,1009.06
2017-03-24T00:48:02.434Z,1009.06
2017-03-24T00:49:02.467Z,1009.06
2017-03-24T00:50:02.503Z,1009.04
2017-03-24T00:51:02.539Z,1009.06
2017-03-24T00:52:02.572Z,1009.04
2017-03-24T00:53:02.608Z,1009.04
2017-03-24T00:54:02.642Z,1009.04
2017-03-24T00:55:02.680Z,1009.02
2017-03-24T00:56:02.712Z,1009.06
2017-03-24T00:57:02.746Z,1009.05
2017-03-24T00:58:02.782Z,1009.06
2017-03-24T00:59:02.814Z,1009.1
2017-03-24T01:00:02.851Z,1009.07
2017-03-24T01:01:02.884Z,1009.12
2017-03-24T01:02:02.921Z,1009.1
2017-03-24T01:03:02.955Z,1009.07
2017-03-24T01:04:02.988Z,1009.07
2017-03-24T01:05:03.023Z,1009.08
2017-03-24T01:06:03.059Z,1009.06
2017-03-24T01:07:03.094Z,1009.07
2017-03-24T01:08:03.127Z,1009.08
2017-03-24T01:09:03.163Z,1009.06
2017-03-24T01:10:03.198Z,1009.04
2017-03-24T01:11:03.233Z,1009.05
2017-03-24T01:12:03.268Z,1009.07
2017-03-24T01:13:03.302Z,1009.05
2017-03-24T01:14:03.337Z,1009.08
2017-03-24T01:15:03.371Z,1009.08
2017-03-24T01:16:03.407Z,1009.1
2017-03-24T01:17:03.442Z,1009.11
2017-03-24T01:18:03.475Z,1009.11
2017-03-24T01:19:03.511Z,1009.15
2017-03-24T01:20:03.550Z,1009.16
2017-03-24T01:21:03.579Z,1009.2
2017-03-24T01:22:03.613Z,1009.18
2017-03-24T01:23:03.650Z,1009.17
2017-03-24T01:24:03.683Z,1009.19
2017-03-24T01:25:03.718Z,1009.21
2017-03-24T01:26:03.753Z,1009.18
2017-03-24T01:27:03.788Z,1009.21
2017-03-24T01:28:03.822Z,1009.21
2017-03-24T01:29:03.858Z,1009.18
2017-03-24T01:30:03.891Z,1009.15
2017-03-24T01:31:03.928Z,1009.14
2017-03-24T01:32:03.961Z,1009.16
2017-03-24T01:33:03.996Z,1009.14
2017-03-24T01:34:04.031Z,1009.13
2017-03-24T01:35:04.065Z,1009.11
2017-03-24T01:36:04.099Z,1009.11
2017-03-24T01:37:04.133Z,1009.14
2017-03-24T01:38:04.169Z,1009.16
2017-03-24T01:39:04.205Z,1009.17
2017-03-24T01:40:04.237Z,1009.17
2017-03-24T01:41:04.273Z,1009.2
2017-03-24T01:42:04.307Z,1009.21
2017-03-24T01:43:04.341Z,1009.25
2017-03-24T01:44:04.377Z,1009.22
2017-03-24T01:45:04.412Z,1009.26
2017-03-24T01:46:04.447Z,1009.28
2017-03-24T01:47:04.480Z,1009.28
2017-03-24T01:48:04.514Z,1009.28
2017-03-24T01:49:04.550Z,1009.26
2017-03-24T01:50:04.584Z,1009.27
2017-03-24T01:51:04.619Z,1009.26
2017-03-24T01:52:04.654Z,1009.27
2017-03-24T01:53:04.690Z,1009.26
2017-03-24T01:54:04.773Z,1009.25
2017-03-24T01:55:04.757Z,1009.27
2017-03-24T01:56:04.793Z,1009.26
2017-03-24T01:57:04.828Z,1009.22
2017-03-24T01:58:04.860Z,1009.23
2017-03-24T01:59:04.896Z,1009.22
2017-03-24T02:00:04.930Z,1009.25
2017-03-24T02:01:04.964Z,1009.24
2017-03-24T02:02:04.998Z,1009.29
2017-03-24T02:03:05.035Z,1009.28
2017-03-24T02:04:05.069Z,1009.33
2017-03-24T02:05:05.102Z,1009.32
2017-03-24T02:06:05.137Z,1009.35
2017-03-24T02:07:05.173Z,1009.39
2017-03-24T02:08:05.207Z,1009.44
2017-03-24T02:09:05.242Z,1009.41
2017-03-24T02:10:05.276Z,1009.46
2017-03-24T02:11:05.310Z,1009.46
2017-03-24T02:12:05.345Z,1009.45
2017-03-24T02:13:05.378Z,1009.45
2017-03-24T02:14:05.413Z,1009.51
2017-03-24T02:15:05.447Z,1009.52
2017-03-24T02:16:05.483Z,1009.51
2017-03-24T02:17:05.518Z,1009.56
2017-03-24T02:18:05.551Z,1009.58
2017-03-24T02:19:05.588Z,1009.58
2017-03-24T02:20:05.621Z,1009.58
2017-03-24T02:21:05.655Z,1009.64
2017-03-24T02:22:05.690Z,1009.63
2017-03-24T02:23:05.725Z,1009.68
2017-03-24T02:24:05.761Z,1009.67
2017-03-24T02:25:05.795Z,1009.66
2017-03-24T02:26:05.829Z,1009.65
2017-03-24T02:27:05.862Z,1009.68
2017-03-24T02:28:05.898Z,1009.67
2017-03-24T02:29:05.933Z,1009.68
2017-03-24T02:30:05.969Z,1009.74
2017-03-24T02:31:06.002Z,1009.74
2017-03-24T02:32:06.035Z,1009.79
2017-03-24T02:33:06.072Z,1009.78
2017-03-24T02:34:06.107Z,1009.82
2017-03-24T02:35:06.149Z,1009.84
2017-03-24T02:36:06.174Z,1009.83
2017-03-24T02:37:06.210Z,1009.86
2017-03-24T02:38:06.243Z,1009.91
2017-03-24T02:39:06.278Z,1009.94
2017-03-24T02:40:06.312Z,1009.99
2017-03-24T02:41:06.349Z,1009.99
2017-03-24T02:42:06.382Z,1009.99
2017-03-24T02:43:06.415Z,1010.01
2017-03-24T02:44:06.451Z,1009.98
2017-03-24T02:45:06.485Z,1009.95
2017-03-24T02:46:06.518Z,1009.91
2017-03-24T02:47:06.555Z,1009.94
2017-03-24T02:48:06.588Z,1009.88
2017-03-24T02:49:06.623Z,1009.84
2017-03-24T02:50:06.657Z,1009.84
2017-03-24T02:51:06.693Z,1009.83
2017-03-24T02:52:06.727Z,1009.83
2017-03-24T02:53:06.759Z,1009.82
2017-03-24T02:54:06.795Z,1009.87
2017-03-24T02:55:06.830Z,1009.92
2017-03-24T02:56:06.862Z,1009.9
2017-03-24T02:57:06.899Z,1009.94
2017-03-24T02:58:06.934Z,1009.97
2017-03-24T02:59:06.967Z,1009.95
2017-03-24T03:00:07.001Z,1009.97
2017-03-24T03:01:07.035Z,1009.98
2017-03-24T03:02:07.071Z,1010
2017-03-24T03:03:07.105Z,1010.03
2017-03-24T03:04:07.137Z,1010.08
2017-03-24T03:05:07.174Z,1010.08
2017-03-24T03:06:07.207Z,1010.08
2017-03-24T03:07:07.242Z,1010.09
2017-03-24T03:08:07.277Z,1010.08
2017-03-24T03:09:07.311Z,1010.08
2017-03-24T03:10:07.345Z,1010.08
2017-03-24T03:11:07.379Z,1010.11
2017-03-24T03:12:07.419Z,1010.07
2017-03-24T03:13:07.449Z,1010.16
2017-03-24T03:14:07.484Z,1010.14
2017-03-24T03:15:07.516Z,1010.12
2017-03-24T03:16:07.550Z,1010.13
2017-03-24T03:17:07.585Z,1010.15
2017-03-24T03:18:07.618Z,1010.17
2017-03-24T03:19:07.655Z,1010.18
2017-03-24T03:20:07.687Z,1010.2
2017-03-24T03:21:07.721Z,1010.23
2017-03-24T03:22:07.754Z,1010.24
2017-03-24T03:23:07.791Z,1010.28
2017-03-24T03:24:07.824Z,1010.27
2017-03-24T03:25:07.859Z,1010.27
2017-03-24T03:26:07.891Z,1010.26
2017-03-24T03:27:07.926Z,1010.25
2017-03-24T03:28:07.961Z,1010.23
2017-03-24T03:29:07.994Z,1010.26
2017-03-24T03:30:08.028Z,1010.25
2017-03-24T03:31:08.063Z,1010.29
2017-03-24T03:32:08.096Z,1010.33
2017-03-24T03:33:08.130Z,1010.33
2017-03-24T03:34:08.165Z,1010.35
2017-03-24T03:35:08.198Z,1010.39
2017-03-24T03:36:08.232Z,1010.42
2017-03-24T03:37:08.271Z,1010.47
2017-03-24T03:38:08.301Z,1010.52
2017-03-24T03:39:08.334Z,1010.53
2017-03-24T03:40:08.368Z,1010.57
2017-03-24T03:41:08.402Z,1010.65
2017-03-24T03:42:08.436Z,1010.68
2017-03-24T03:43:08.470Z,1010.7
2017-03-24T03:44:08.504Z,1010.7
2017-03-24T03:45:08.539Z,1010.74
2017-03-24T03:46:08.574Z,1010.74
2017-03-24T03:47:08.605Z,1010.73
2017-03-24T03:48:08.643Z,1010.76
2017-03-24T03:49:08.675Z,1010.8
2017-03-24T03:50:08.707Z,1010.82
2017-03-24T03:51:08.742Z,1010.89
2017-03-24T03:52:08.775Z,1010.9
2017-03-24T03:53:08.808Z,1010.89
2017-03-24T03:54:08.844Z,1010.85
2017-03-24T03:55:08.877Z,1010.87
2017-03-24T03:56:08.910Z,1010.89
2017-03-24T03:57:08.945Z,1010.95
2017-03-24T03:58:08.979Z,1010.94
2017-03-24T03:59:09.014Z,1010.94
2017-03-24T04:00:09.048Z,1010.99
2017-03-24T04:01:09.083Z,1010.98
2017-03-24T04:02:09.116Z,1010.99
2017-03-24T04:03:09.149Z,1011.06
2017-03-24T04:04:09.185Z,1011.04
2017-03-24T04:05:09.220Z,1011.12
2017-03-24T04:06:09.252Z,1011.13
2017-03-24T04:07:09.291Z,1011.17
2017-03-24T04:08:09.327Z,1011.18
2017-03-24T04:09:09.358Z,1011.24
2017-03-24T04:10:09.389Z,1011.2
2017-03-24T04:11:09.422Z,1011.26
2017-03-24T04:12:09.458Z,1011.26
2017-03-24T04:13:09.491Z,1011.26
2017-03-24T04:14:09.525Z,1011.26
2017-03-24T04:15:09.559Z,1011.24
2017-03-24T04:16:09.592Z,1011.22
2017-03-24T04:17:09.625Z,1011.23
2017-03-24T04:18:09.661Z,1011.26
2017-03-24T04:19:09.695Z,1011.26
2017-03-24T04:20:09.728Z,1011.25
2017-03-24T04:21:09.763Z,1011.28
2017-03-24T04:22:09.797Z,1011.29
2017-03-24T04:23:09.830Z,1011.29
2017-03-24T04:24:09.865Z,1011.32
2017-03-24T04:25:09.898Z,1011.31
2017-03-24T04:26:09.934Z,1011.37
2017-03-24T04:27:09.967Z,1011.31
2017-03-24T04:28:10.002Z,1011.38
2017-03-24T04:29:10.036Z,1011.36
2017-03-24T04:30:10.069Z,1011.41
2017-03-24T04:31:10.103Z,1011.39
2017-03-24T04:32:10.137Z,1011.41
2017-03-24T04:33:10.171Z,1011.44
2017-03-24T04:34:10.207Z,1011.44
2017-03-24T04:35:10.240Z,1011.44
2017-03-24T04:36:10.273Z,1011.45
2017-03-24T04:37:10.309Z,1011.48
2017-03-24T04:38:10.348Z,1011.48
2017-03-24T04:39:10.377Z,1011.48
2017-03-24T04:40:10.409Z,1011.49
2017-03-24T04:41:10.445Z,1011.49
2017-03-24T04:42:10.477Z,1011.5
2017-03-24T04:43:10.512Z,1011.49
2017-03-24T04:44:10.549Z,1011.54
2017-03-24T04:45:10.579Z,1011.5
2017-03-24T04:46:10.613Z,1011.49
2017-03-24T04:47:10.651Z,1011.51
2017-03-24T04:48:10.684Z,1011.51
2017-03-24T04:49:10.717Z,1011.58
2017-03-24T04:50:10.750Z,1011.55
2017-03-24T04:51:10.784Z,1011.57
2017-03-24T04:52:10.820Z,1011.6
2017-03-24T04:53:10.852Z,1011.63
2017-03-24T04:54:10.888Z,1011.62
2017-03-24T04:55:10.921Z,1011.66
2017-03-24T04:56:10.955Z,1011.72
2017-03-24T04:57:10.988Z,1011.76
2017-03-24T04:58:11.022Z,1011.77
2017-03-24T04:59:11.056Z,1011.77
2017-03-24T05:00:11.091Z,1011.8
2017-03-24T05:01:11.124Z,1011.75
2017-03-24T05:02:11.159Z,1011.78
2017-03-24T05:03:11.191Z,1011.81
2017-03-24T05:04:11.226Z,1011.81
2017-03-24T05:05:11.259Z,1011.87
2017-03-24T05:06:11.294Z,1011.87
2017-03-24T05:07:11.328Z,1011.91
2017-03-24T05:08:11.364Z,1011.91
2017-03-24T05:09:11.395Z,1011.9
2017-03-24T05:10:11.429Z,1011.87
2017-03-24T05:11:11.463Z,1011.81
2017-03-24T05:12:11.496Z,1011.81
2017-03-24T05:13:11.529Z,1011.84
2017-03-24T05:14:11.564Z,1011.86
2017-03-24T05:15:11.598Z,1011.91
2017-03-24T05:16:11.632Z,1011.93
2017-03-24T05:17:11.664Z,1011.98
2017-03-24T05:18:11.705Z,1011.97
2017-03-24T05:19:11.733Z,1011.95
2017-03-24T05:20:11.767Z,1011.97
2017-03-24T05:21:11.801Z,1011.93
2017-03-24T05:22:11.834Z,1011.98
2017-03-24T05:23:11.869Z,1011.98
2017-03-24T05:24:11.950Z,1012
2017-03-24T05:25:11.935Z,1011.99
2017-03-24T05:26:11.968Z,1012.03
2017-03-24T05:27:12.004Z,1012.02
2017-03-24T05:28:12.035Z,1012.04
2017-03-24T05:29:12.071Z,1012.06
2017-03-24T05:30:12.103Z,1012.13
2017-03-24T05:31:12.138Z,1012.16
2017-03-24T05:32:12.172Z,1012.25
2017-03-24T05:33:12.206Z,1012.3
2017-03-24T05:34:12.240Z,1012.26
2017-03-24T05:35:12.275Z,1012.29
2017-03-24T05:36:12.309Z,1012.34
2017-03-24T05:37:12.342Z,1012.35
2017-03-24T05:38:12.377Z,1012.38
2017-03-24T05:39:12.410Z,1012.39
2017-03-24T05:40:12.444Z,1012.42
2017-03-24T05:41:12.477Z,1012.42
2017-03-24T05:42:12.512Z,1012.45
2017-03-24T05:43:12.545Z,1012.44
2017-03-24T05:44:12.579Z,1012.47
2017-03-24T05:45:12.613Z,1012.44
2017-03-24T05:46:12.648Z,1012.47
2017-03-24T05:47:12.682Z,1012.53
2017-03-24T05:48:12.715Z,1012.52
2017-03-24T05:49:12.750Z,1012.56
2017-03-24T05:50:12.783Z,1012.53
2017-03-24T05:51:12.817Z,1012.59
2017-03-24T05:52:12.914Z,1012.65
2017-03-24T05:53:12.886Z,1012.71
2017-03-24T05:54:12.919Z,1012.76
2017-03-24T05:55:12.952Z,1012.73
2017-03-24T05:56:12.988Z,1012.77
2017-03-24T05:57:13.022Z,1012.73
2017-03-24T05:58:13.056Z,1012.74
2017-03-24T05:59:13.091Z,1012.78
2017-03-24T06:00:13.123Z,1012.77
2017-03-24T06:01:13.161Z,1012.82
2017-03-24T06:02:13.194Z,1012.86
2017-03-24T06:03:13.272Z,1012.91
2017-03-24T06:04:13.263Z,1012.92
2017-03-24T06:05:13.296Z,1012.98
2017-03-24T06:06:13.329Z,1012.96
2017-03-24T06:07:13.364Z,1012.96
2017-03-24T06:08:13.452Z,1012.91
2017-03-24T06:09:13.436Z,1012.97
2017-03-24T06:10:13.489Z,1012.92
2017-03-24T06:11:13.518Z,1012.97
2017-03-24T06:12:13.539Z,1012.99
2017-03-24T06:13:13.572Z,1012.99
2017-03-24T06:14:13.607Z,1013.07
2017-03-24T06:15:13.648Z,1013.07
2017-03-24T06:16:13.680Z,1013.12
2017-03-24T06:17:13.712Z,1013.2
2017-03-24T06:18:13.746Z,1013.23
2017-03-24T06:19:13.780Z,1013.25
2017-03-24T06:20:13.816Z,1013.24
2017-03-24T06:21:13.849Z,1013.24
2017-03-24T06:22:13.886Z,1013.25
2017-03-24T06:23:13.920Z,1013.28
2017-03-24T06:24:13.954Z,1013.34
2017-03-24T06:25:13.990Z,1013.32
2017-03-24T06:26:14.022Z,1013.29
2017-03-24T06:27:14.059Z,1013.32
2017-03-24T06:28:14.093Z,1013.32
2017-03-24T06:29:14.126Z,1013.3
2017-03-24T06:30:14.162Z,1013.33
2017-03-24T06:31:14.207Z,1013.35
2017-03-24T06:32:14.234Z,1013.41
2017-03-24T06:33:14.268Z,1013.41
2017-03-24T06:34:14.302Z,1013.42
2017-03-24T06:35:14.338Z,1013.45
2017-03-24T06:36:14.374Z,1013.45
2017-03-24T06:37:14.407Z,1013.47
2017-03-24T06:38:14.442Z,1013.48
2017-03-24T06:39:14.477Z,1013.49
2017-03-24T06:40:14.513Z,1013.48
2017-03-24T06:41:14.547Z,1013.5
2017-03-24T06:42:14.582Z,1013.57
2017-03-24T06:43:14.618Z,1013.58
2017-03-24T06:44:14.653Z,1013.57
2017-03-24T06:45:14.688Z,1013.62
2017-03-24T06:46:14.724Z,1013.65
2017-03-24T06:47:14.760Z,1013.73
2017-03-24T06:48:14.796Z,1013.74
2017-03-24T06:49:14.831Z,1013.74
2017-03-24T06:50:14.867Z,1013.79
2017-03-24T06:51:14.903Z,1013.81
2017-03-24T06:52:14.939Z,1013.88
2017-03-24T06:53:14.976Z,1013.9
2017-03-24T06:54:15.013Z,1013.9
2017-03-24T06:55:15.051Z,1013.84
2017-03-24T06:56:15.087Z,1013.82
2017-03-24T06:57:15.126Z,1013.83
2017-03-24T06:58:15.162Z,1013.86
2017-03-24T06:59:15.202Z,1013.89
2017-03-24T07:00:15.238Z,1013.85
2017-03-24T07:01:15.276Z,1013.87
2017-03-24T07:02:15.316Z,1013.85
2017-03-24T07:03:15.353Z,1013.9
2017-03-24T07:04:15.393Z,1013.86
2017-03-24T07:05:15.431Z,1013.91
2017-03-24T07:06:15.493Z,1013.88
2017-03-24T07:07:15.507Z,1013.91
2017-03-24T07:08:15.546Z,1013.94
2017-03-24T07:09:15.585Z,1013.97
2017-03-24T07:10:15.623Z,1013.94
2017-03-24T07:11:15.661Z,1013.97
2017-03-24T07:12:15.699Z,1014.04
2017-03-24T07:13:15.740Z,1014.05
2017-03-24T07:14:15.779Z,1014.08
2017-03-24T07:15:15.817Z,1014.06
2017-03-24T07:16:15.855Z,1014.1
2017-03-24T07:17:15.895Z,1014.1
2017-03-24T07:18:15.938Z,1014.08
2017-03-24T07:19:15.973Z,1014.08
2017-03-24T07:20:16.011Z,1014.1
2017-03-24T07:21:16.049Z,1014.1
2017-03-24T07:22:16.090Z,1014.11
2017-03-24T07:23:16.129Z,1014.16
2017-03-24T07:24:16.170Z,1014.21
2017-03-24T07:25:16.209Z,1014.27
2017-03-24T07:26:16.249Z,1014.27
2017-03-24T07:27:16.288Z,1014.27
2017-03-24T07:28:16.329Z,1014.34
2017-03-24T07:29:16.372Z,1014.33
2017-03-24T07:30:16.411Z,1014.31
2017-03-24T07:31:16.455Z,1014.25
2017-03-24T07:32:16.496Z,1014.27
2017-03-24T07:33:16.535Z,1014.31
2017-03-24T07:34:16.579Z,1014.3
2017-03-24T07:35:16.619Z,1014.28
2017-03-24T07:36:16.662Z,1014.33
2017-03-24T07:37:16.705Z,1014.34
2017-03-24T07:38:16.749Z,1014.36
2017-03-24T07:39:16.797Z,1014.4
2017-03-24T07:40:16.835Z,1014.44
2017-03-24T07:41:16.879Z,1014.48
2017-03-24T07:42:16.923Z,1014.48
2017-03-24T07:43:16.975Z,1014.43
2017-03-24T07:44:17.013Z,1014.48
2017-03-24T07:45:17.054Z,1014.47
2017-03-24T07:46:17.099Z,1014.44
2017-03-24T07:47:17.145Z,1014.47
2017-03-24T07:48:17.190Z,1014.47
2017-03-24T07:49:17.233Z,1014.47
2017-03-24T07:50:17.279Z,1014.52
2017-03-24T07:51:17.323Z,1014.53
2017-03-24T07:52:17.369Z,1014.55
2017-03-24T07:53:17.412Z,1014.52
2017-03-24T07:54:17.461Z,1014.52
2017-03-24T07:55:17.505Z,1014.54
2017-03-24T07:56:17.549Z,1014.55
2017-03-24T07:57:17.597Z,1014.46
2017-03-24T07:58:17.641Z,1014.49
2017-03-24T07:59:17.687Z,1014.5
2017-03-24T08:00:17.732Z,1014.5
2017-03-24T08:01:17.780Z,1014.51
2017-03-24T08:02:17.824Z,1014.48
2017-03-24T08:03:17.867Z,1014.51
2017-03-24T08:04:17.939Z,1014.49
2017-03-24T08:05:17.960Z,1014.49
2017-03-24T08:06:18.009Z,1014.44
2017-03-24T08:07:18.051Z,1014.41
2017-03-24T08:08:18.096Z,1014.46
2017-03-24T08:09:18.146Z,1014.4
2017-03-24T08:10:18.190Z,1014.48
2017-03-24T08:11:18.235Z,1014.41
2017-03-24T08:12:18.280Z,1014.46
2017-03-24T08:13:18.359Z,1014.45
2017-03-24T08:14:18.373Z,1014.49
2017-03-24T08:15:18.419Z,1014.48
2017-03-24T08:16:18.468Z,1014.51
2017-03-24T08:17:18.515Z,1014.52
2017-03-24T08:18:18.558Z,1014.53
2017-03-24T08:19:18.608Z,1014.54
2017-03-24T08:20:18.651Z,1014.52
2017-03-24T08:21:18.699Z,1014.53
2017-03-24T08:22:18.744Z,1014.52
2017-03-24T08:23:18.790Z,1014.52
2017-03-24T08:24:18.838Z,1014.51
2017-03-24T08:25:18.882Z,1014.53
2017-03-24T08:26:18.931Z,1014.54
2017-03-24T08:27:18.978Z,1014.55
2017-03-24T08:28:19.024Z,1014.53
2017-03-24T08:29:19.075Z,1014.59
2017-03-24T08:30:19.128Z,1014.59
2017-03-24T08:31:19.211Z,1014.58
2017-03-24T08:32:19.331Z,1014.57
2017-03-24T08:33:19.259Z,1014.64
2017-03-24T08:34:19.308Z,1014.65
2017-03-24T08:35:19.358Z,1014.66
2017-03-24T08:36:19.406Z,1014.63
2017-03-24T08:37:19.451Z,1014.62
2017-03-24T08:38:19.500Z,1014.61
2017-03-24T08:39:19.546Z,1014.58
2017-03-24T08:40:19.602Z,1014.58
2017-03-24T08:41:19.644Z,1014.53
2017-03-24T08:42:19.691Z,1014.58
2017-03-24T08:43:19.743Z,1014.55
2017-03-24T08:44:19.809Z,1014.56
2017-03-24T08:45:19.837Z,1014.58
2017-03-24T08:46:19.888Z,1014.52
2017-03-24T08:47:19.933Z,1014.55
2017-03-24T08:48:19.983Z,1014.56
2017-03-24T08:49:20.031Z,1014.52
2017-03-24T08:50:20.081Z,1014.49
2017-03-24T08:51:20.128Z,1014.53
2017-03-24T08:52:20.176Z,1014.53
2017-03-24T08:53:20.226Z,1014.5
2017-03-24T08:54:20.274Z,1014.48
2017-03-24T08:55:20.321Z,1014.48
2017-03-24T08:56:20.390Z,1014.53
2017-03-24T08:57:20.420Z,1014.57
2017-03-24T08:58:20.468Z,1014.58
2017-03-24T08:59:20.517Z,1014.56
2017-03-24T09:00:20.567Z,1014.51
2017-03-24T09:01:20.615Z,1014.48
2017-03-24T09:02:20.718Z,1014.51
2017-03-24T09:03:20.713Z,1014.52
2017-03-24T09:04:20.821Z,1014.49
2017-03-24T09:05:20.811Z,1014.45
2017-03-24T09:06:20.861Z,1014.39
2017-03-24T09:07:20.910Z,1014.38
2017-03-24T09:08:20.960Z,1014.36
2017-03-24T09:09:21.016Z,1014.31
2017-03-24T09:10:21.061Z,1014.34
2017-03-24T09:11:21.111Z,1014.3
2017-03-24T09:12:21.161Z,1014.29
2017-03-24T09:13:21.230Z,1014.35
2017-03-24T09:14:21.263Z,1014.3
2017-03-24T09:15:21.355Z,1014.36
2017-03-24T09:16:21.373Z,1014.32
2017-03-24T09:17:21.416Z,1014.4
2017-03-24T09:18:21.462Z,1014.47
2017-03-24T09:19:21.514Z,1014.51
2017-03-24T09:20:21.570Z,1014.56
2017-03-24T09:21:21.616Z,1014.61
2017-03-24T09:22:21.663Z,1014.55
2017-03-24T09:23:21.712Z,1014.59
2017-03-24T09:24:21.761Z,1014.58
2017-03-24T09:25:21.810Z,1014.59
2017-03-24T09:26:21.861Z,1014.6
2017-03-24T09:27:21.912Z,1014.58
2017-03-24T09:28:21.959Z,1014.6
2017-03-24T09:29:22.009Z,1014.59
2017-03-24T09:30:22.059Z,1014.56
2017-03-24T09:31:22.108Z,1014.53
2017-03-24T09:32:22.156Z,1014.57
2017-03-24T09:33:22.207Z,1014.57
2017-03-24T09:34:22.260Z,1014.58
2017-03-24T09:35:22.308Z,1014.58
2017-03-24T09:36:22.356Z,1014.58
2017-03-24T09:37:22.407Z,1014.58
2017-03-24T09:38:22.457Z,1014.58
2017-03-24T09:39:22.506Z,1014.6
2017-03-24T09:40:22.557Z,1014.54
2017-03-24T09:41:22.607Z,1014.59
2017-03-24T09:42:22.656Z,1014.59
2017-03-24T09:43:22.707Z,1014.62
2017-03-24T09:44:22.768Z,1014.65
2017-03-24T09:45:22.808Z,1014.69
2017-03-24T09:46:22.856Z,1014.67
2017-03-24T09:47:22.907Z,1014.62
2017-03-24T09:48:22.957Z,1014.58
2017-03-24T09:49:23.006Z,1014.53
2017-03-24T09:50:23.056Z,1014.67
2017-03-24T09:51:23.106Z,1014.79
2017-03-24T09:52:23.159Z,1014.73
2017-03-24T09:53:23.206Z,1014.72
2017-03-24T09:54:23.256Z,1014.74
2017-03-24T09:55:23.307Z,1014.8
2017-03-24T09:56:23.357Z,1014.81
2017-03-24T09:57:23.406Z,1014.83
2017-03-24T09:58:23.457Z,1014.82
2017-03-24T09:59:23.543Z,1014.87
2017-03-24T10:00:23.556Z,1014.9
2017-03-24T10:01:23.607Z,1014.88
2017-03-24T10:02:24.122Z,1014.85
2017-03-24T10:03:23.709Z,1014.88
2017-03-24T10:04:23.763Z,1014.88
2017-03-24T10:05:23.813Z,1014.87
2017-03-24T10:06:23.864Z,1014.91
2017-03-24T10:07:23.916Z,1014.85
2017-03-24T10:08:23.969Z,1014.87
2017-03-24T10:09:24.017Z,1014.91
2017-03-24T10:10:24.070Z,1014.89
2017-03-24T10:11:24.120Z,1015.01
2017-03-24T10:12:24.171Z,1015.01
2017-03-24T10:13:24.225Z,1015.01
2017-03-24T10:14:24.274Z,1015.08
2017-03-24T10:15:24.325Z,1015.11
2017-03-24T10:16:24.377Z,1015.08
2017-03-24T10:17:24.430Z,1015.05
2017-03-24T10:18:24.483Z,1015.14
2017-03-24T10:19:24.553Z,1015.16
2017-03-24T10:20:24.587Z,1015.15
2017-03-24T10:21:24.639Z,1015.12
2017-03-24T10:22:24.691Z,1015.05
2017-03-24T10:23:24.743Z,1014.95
2017-03-24T10:24:24.797Z,1014.98
2017-03-24T10:25:24.846Z,1014.92
2017-03-24T10:26:24.900Z,1015.03
2017-03-24T10:27:24.954Z,1014.98
2017-03-24T10:28:25.000Z,1015.01
2017-03-24T10:29:25.051Z,1015.04
2017-03-24T10:30:25.102Z,1014.99
2017-03-24T10:31:25.154Z,1014.92
2017-03-24T10:32:25.206Z,1014.85
2017-03-24T10:33:25.255Z,1014.88
2017-03-24T10:34:25.308Z,1014.94
2017-03-24T10:35:25.358Z,1014.92
2017-03-24T10:36:25.411Z,1014.89
2017-03-24T10:37:25.461Z,1014.93
2017-03-24T10:38:25.513Z,1014.87
2017-03-24T10:39:25.564Z,1014.89
2017-03-24T10:40:25.614Z,1014.95
2017-03-24T10:41:25.674Z,1014.92
2017-03-24T10:42:25.718Z,1014.97
2017-03-24T10:43:25.771Z,1014.91
2017-03-24T10:44:25.820Z,1015.04
2017-03-24T10:45:25.871Z,1015.03
2017-03-24T10:46:25.923Z,1014.97
2017-03-24T10:47:25.974Z,1015.05
2017-03-24T10:48:26.026Z,1015.03
2017-03-24T10:49:26.078Z,1015.12
2017-03-24T10:50:26.129Z,1015.13
2017-03-24T10:51:26.179Z,1015.12
2017-03-24T10:52:26.231Z,1015.22
2017-03-24T10:53:26.283Z,1015.21
2017-03-24T10:54:26.335Z,1015.19
2017-03-24T10:55:26.390Z,1015.3
2017-03-24T10:56:26.438Z,1015.28
2017-03-24T10:57:26.494Z,1015.29
2017-03-24T10:58:26.542Z,1015.27
2017-03-24T10:59:26.593Z,1015.27
2017-03-24T11:00:26.645Z,1015.33
2017-03-24T11:01:26.697Z,1015.35
2017-03-24T11:02:26.748Z,1015.36
2017-03-24T11:03:26.799Z,1015.38
2017-03-24T11:04:26.855Z,1015.45
2017-03-24T11:05:26.904Z,1015.35
2017-03-24T11:06:26.956Z,1015.35
2017-03-24T11:07:27.004Z,1015.18
2017-03-24T11:08:27.057Z,1015.29
2017-03-24T11:09:27.106Z,1015.26
2017-03-24T11:10:27.157Z,1015.31
2017-03-24T11:11:27.205Z,1015.31
2017-03-24T11:12:27.256Z,1015.29
2017-03-24T11:13:27.301Z,1015.26
2017-03-24T11:14:27.349Z,1015.24
2017-03-24T11:15:27.397Z,1015.24
2017-03-24T11:16:27.446Z,1015.17
2017-03-24T11:17:27.494Z,1015.28
2017-03-24T11:18:27.543Z,1015.31
2017-03-24T11:19:27.590Z,1015.35
2017-03-24T11:20:27.638Z,1015.34
2017-03-24T11:21:27.685Z,1015.32
2017-03-24T11:22:27.733Z,1015.21
2017-03-24T11:23:28.100Z,1015.24
2017-03-24T11:24:27.826Z,1015.29
2017-03-24T11:25:27.875Z,1015.23
2017-03-24T11:26:27.919Z,1015.3
2017-03-24T11:27:27.964Z,1015.27
2017-03-24T11:28:28.009Z,1015.2
2017-03-24T11:29:28.059Z,1015.17
2017-03-24T11:30:28.102Z,1015.14
2017-03-24T11:31:28.147Z,1015.27
2017-03-24T11:32:28.194Z,1015.23
2017-03-24T11:33:28.235Z,1015.11
2017-03-24T11:34:28.279Z,1015.23
2017-03-24T11:35:28.322Z,1015.2
2017-03-24T11:36:28.367Z,1015.17
2017-03-24T11:37:28.410Z,1015.26
2017-03-24T11:38:28.453Z,1015.28
2017-03-24T11:39:28.497Z,1015.33
2017-03-24T11:40:28.543Z,1015.26
2017-03-24T11:41:28.582Z,1015.23
2017-03-24T11:42:28.751Z,1015.24
2017-03-24T11:43:28.673Z,1015.18
2017-03-24T11:44:28.711Z,1015.25
2017-03-24T11:45:28.756Z,1015.26
2017-03-24T11:46:28.799Z,1015.29
2017-03-24T11:47:28.842Z,1015.22
2017-03-24T11:48:28.884Z,1015.2
2017-03-24T11:49:28.929Z,1015.29
2017-03-24T11:50:28.969Z,1015.24
2017-03-24T11:51:29.011Z,1015.15
2017-03-24T11:52:29.056Z,1015.19
2017-03-24T11:53:29.097Z,1015.16
2017-03-24T11:54:29.141Z,1015.2
2017-03-24T11:55:29.185Z,1015.16
2017-03-24T11:56:29.226Z,1015.09
2017-03-24T11:57:29.269Z,1015.14
2017-03-24T11:58:29.308Z,1015.01
2017-03-24T11:59:29.352Z,1015.16
2017-03-24T12:00:29.394Z,1015.1
2017-03-24T12:01:29.433Z,1015.05
2017-03-24T12:02:29.475Z,1015.01
2017-03-24T12:03:29.528Z,1014.94
2017-03-24T12:04:29.560Z,1014.98
2017-03-24T12:05:29.601Z,1015
2017-03-24T12:06:29.640Z,1014.95
2017-03-24T12:07:29.690Z,1014.99